Time;durP1;ratioP1;P1;durP2;ratioP2;P2;SDS_P1;SDS_P2;PMS_P1;PMS_P2;Temp;Humidity;BMP_temperature;BMP_pressure;BME280_temperature;BME280_humidity;BME280_pressure;Samples;Min_cycle;Max_cycle;Signal;HPM_P1;HPM_P2
2022/02/18 00:01:56;;;;;;;;;;;5.20;99.90;;;;;;4904271;29;19919;-78
2022/02/18 00:04:22;;;;;;;;;;;5.10;99.90;;;;;;4916843;29;19919;-78
2022/02/18 00:06:47;;;;;;;;;;;5.00;99.90;;;;;;4915771;29;20030;-79
2022/02/18 00:09:13;;;;;;;;;;;4.90;99.90;;;;;;4899121;28;19919;-78
2022/02/18 00:11:40;;;;;;;;;;;4.90;99.90;;;;;;4919844;28;19926;-78
2022/02/18 00:14:05;;;;;;;;;;;4.80;99.90;;;;;;4917409;29;19920;-78
2022/02/18 00:16:31;;;;;;;;;;;4.70;99.90;;;;;;4977692;28;19934;-78
2022/02/18 00:18:57;;;;;;;;;;;4.70;99.90;;;;;;4988305;28;19923;-79
2022/02/18 00:21:22;;;;;;;;;;;4.70;99.90;;;;;;4924086;28;20011;-78
2022/02/18 00:23:48;;;;;;;;;;;4.60;99.90;;;;;;4942187;28;19915;-78
2022/02/18 00:26:14;;;;;;;;;;;4.60;99.90;;;;;;4907628;28;19939;-79
2022/02/18 00:28:39;;;;;;;;;;;4.50;99.90;;;;;;4906355;28;19959;-78
2022/02/18 00:31:05;;;;;;;;;;;4.50;99.90;;;;;;4980679;28;19934;-78
2022/02/18 00:33:32;;;;;;;;;;;4.40;99.90;;;;;;4906369;28;19927;-79
2022/02/18 00:35:58;;;;;;;;;;;4.40;99.90;;;;;;4894459;29;19919;-79
2022/02/18 00:38:27;;;;;;;;;;;4.40;99.90;;;;;;4903961;29;19969;-79
2022/02/18 00:40:52;;;;;;;;;;;4.40;99.90;;;;;;4900178;28;19915;-78
2022/02/18 00:43:18;;;;;;;;;;;4.40;99.90;;;;;;4911882;28;19919;-78
2022/02/18 00:45:44;;;;;;;;;;;4.30;99.90;;;;;;4930526;29;20051;-80
2022/02/18 00:48:11;;;;;;;;;;;4.30;99.90;;;;;;4981758;28;19927;-79
2022/02/18 00:50:37;;;;;;;;;;;4.30;99.90;;;;;;4919534;28;20003;-78
2022/02/18 00:53:05;;;;;;;;;;;4.30;99.90;;;;;;4962782;28;19927;-78
2022/02/18 00:55:31;;;;;;;;;;;4.30;99.90;;;;;;4914425;28;19927;-78
2022/02/18 00:57:58;;;;;;;;;;;4.30;99.90;;;;;;4911892;28;19922;-79
2022/02/18 01:00:24;;;;;;;;;;;4.30;99.90;;;;;;4899360;28;19924;-78
2022/02/18 01:02:49;;;;;;;;;;;4.30;99.90;;;;;;4912613;28;19920;-79
2022/02/18 01:05:15;;;;;;;;;;;4.30;99.90;;;;;;4909362;28;19963;-78
2022/02/18 01:07:42;;;;;;;;;;;4.30;99.90;;;;;;4901174;29;19937;-78
2022/02/18 01:10:08;;;;;;;;;;;4.30;99.90;;;;;;4899105;28;19915;-79
2022/02/18 01:12:39;;;;;;;;;;;4.30;99.90;;;;;;4905603;29;20345;-79
2022/02/18 01:15:06;;;;;;;;;;;4.30;99.90;;;;;;4913217;28;19954;-79
2022/02/18 01:17:31;;;;;;;;;;;4.30;99.90;;;;;;4909139;29;19915;-79
2022/02/18 01:19:57;;;;;;;;;;;4.30;99.90;;;;;;4900267;28;20397;-79
2022/02/18 01:22:23;;;;;;;;;;;4.40;99.90;;;;;;4914683;28;20068;-79
2022/02/18 01:24:48;;;;;;;;;;;4.30;99.90;;;;;;4913019;29;19981;-80
2022/02/18 01:27:16;;;;;;;;;;;4.30;99.90;;;;;;4899119;29;19916;-79
2022/02/18 01:29:42;;;;;;;;;;;4.30;99.90;;;;;;4893894;28;19919;-79
2022/02/18 01:32:12;;;;;;;;;;;4.30;99.90;;;;;;4913849;29;19965;-79
2022/02/18 01:34:39;;;;;;;;;;;4.30;99.90;;;;;;4897996;29;19951;-79
2022/02/18 01:37:05;;;;;;;;;;;4.40;99.90;;;;;;4910585;28;19919;-79
2022/02/18 01:39:31;;;;;;;;;;;4.40;99.90;;;;;;4931885;28;19929;-79
2022/02/18 01:41:57;;;;;;;;;;;4.40;99.90;;;;;;4897651;28;19923;-79
2022/02/18 01:44:33;;;;;;;;;;;4.40;99.90;;;;;;4907117;28;19967;-79
2022/02/18 01:46:59;;;;;;;;;;;4.40;99.90;;;;;;4910587;29;20325;-79
2022/02/18 01:49:24;;;;;;;;;;;4.30;99.90;;;;;;4908632;29;20007;-79
2022/02/18 01:51:50;;;;;;;;;;;4.30;99.90;;;;;;4913854;28;20299;-79
2022/02/18 01:54:15;;;;;;;;;;;4.30;99.90;;;;;;4909351;28;20000;-80
2022/02/18 01:56:41;;;;;;;;;;;4.30;99.90;;;;;;4910571;29;19970;-79
2022/02/18 01:59:09;;;;;;;;;;;4.20;99.90;;;;;;4902380;28;19919;-79
2022/02/18 02:01:34;;;;;;;;;;;4.20;99.90;;;;;;4935330;28;19969;-79
2022/02/18 02:04:03;;;;;;;;;;;4.20;99.90;;;;;;4949250;28;19920;-79
2022/02/18 02:06:29;;;;;;;;;;;4.10;99.90;;;;;;4895189;29;19920;-79
2022/02/18 02:08:55;;;;;;;;;;;4.10;99.90;;;;;;4924367;28;19963;-79
2022/02/18 02:11:21;;;;;;;;;;;4.10;99.90;;;;;;4936590;28;19930;-79
2022/02/18 02:13:49;;;;;;;;;;;4.10;99.90;;;;;;4954550;28;19926;-79
2022/02/18 02:16:21;;;;;;;;;;;4.20;99.90;;;;;;4914766;28;19926;-79
2022/02/18 02:18:47;;;;;;;;;;;4.10;99.90;;;;;;4978495;28;19969;-79
2022/02/18 02:21:13;;;;;;;;;;;4.10;99.90;;;;;;4929540;28;19923;-79
2022/02/18 02:23:42;;;;;;;;;;;4.00;99.90;;;;;;4895604;29;19927;-79
2022/02/18 02:26:13;;;;;;;;;;;4.00;99.90;;;;;;4918014;29;20293;-79
2022/02/18 02:28:41;;;;;;;;;;;4.00;99.90;;;;;;4898562;29;19966;-79
2022/02/18 02:31:06;;;;;;;;;;;4.00;99.90;;;;;;4904713;28;19919;-79
2022/02/18 02:33:35;;;;;;;;;;;4.00;99.90;;;;;;4951990;28;19915;-79
2022/02/18 02:36:02;;;;;;;;;;;4.00;99.90;;;;;;4902583;29;19939;-79
2022/02/18 02:38:28;;;;;;;;;;;4.00;99.90;;;;;;4896458;28;20378;-79
2022/02/18 02:40:54;;;;;;;;;;;4.00;99.90;;;;;;4943539;28;19919;-79
2022/02/18 02:43:20;;;;;;;;;;;4.00;99.90;;;;;;4919468;28;20025;-81
2022/02/18 02:45:46;;;;;;;;;;;3.90;99.90;;;;;;4894836;28;19915;-81
2022/02/18 02:48:13;;;;;;;;;;;3.90;99.90;;;;;;4961075;28;20007;-81
2022/02/18 02:50:58;;;;;;;;;;;3.80;99.90;;;;;;4905716;28;19915;-81
2022/02/18 02:53:25;;;;;;;;;;;3.90;99.90;;;;;;4960418;28;20366;-79
2022/02/18 02:55:52;;;;;;;;;;;3.80;99.90;;;;;;4913608;29;19919;-79
2022/02/18 02:58:18;;;;;;;;;;;3.90;99.90;;;;;;4913551;28;19927;-79
2022/02/18 03:00:45;;;;;;;;;;;3.80;99.90;;;;;;4926859;28;19943;-79
2022/02/18 03:03:24;;;;;;;;;;;3.90;99.90;;;;;;4900365;29;19998;-79
2022/02/18 03:05:59;;;;;;;;;;;3.90;99.90;;;;;;4999549;28;19917;-79
2022/02/18 03:08:24;;;;;;;;;;;3.90;99.90;;;;;;4979316;22;19927;-81
2022/02/18 03:13:38;;;;;;;;;;;4.00;99.90;;;;;;4928268;29;19915;-81
2022/02/18 03:16:04;;;;;;;;;;;4.00;99.90;;;;;;4912135;29;19918;-82
2022/02/18 03:18:30;;;;;;;;;;;4.00;99.90;;;;;;4896607;29;20428;-82
2022/02/18 03:20:56;;;;;;;;;;;3.90;99.90;;;;;;4909425;28;20351;-83
2022/02/18 03:23:22;;;;;;;;;;;3.90;99.90;;;;;;4909592;28;19998;-82
2022/02/18 03:25:48;;;;;;;;;;;3.90;99.90;;;;;;4919114;28;19922;-81
2022/02/18 03:28:14;;;;;;;;;;;3.80;99.90;;;;;;4983356;28;19919;-82
2022/02/18 03:30:42;;;;;;;;;;;3.70;99.90;;;;;;4918957;28;19919;-81
2022/02/18 03:33:11;;;;;;;;;;;3.70;99.90;;;;;;4912318;29;19941;-81
2022/02/18 03:35:37;;;;;;;;;;;3.70;99.90;;;;;;4927784;29;19927;-81
2022/02/18 03:38:03;;;;;;;;;;;3.60;99.90;;;;;;4923373;28;20448;-81
2022/02/18 03:40:31;;;;;;;;;;;3.60;99.90;;;;;;4989537;28;19920;-81
2022/02/18 03:42:58;;;;;;;;;;;3.60;99.90;;;;;;4989432;28;19915;-81
2022/02/18 03:45:28;;;;;;;;;;;3.60;99.90;;;;;;4994630;28;20431;-82
2022/02/18 03:47:54;;;;;;;;;;;3.60;99.90;;;;;;4927620;28;19915;-82
2022/02/18 03:50:20;;;;;;;;;;;3.50;99.90;;;;;;4927168;28;20015;-80
2022/02/18 03:52:46;;;;;;;;;;;3.50;99.90;;;;;;4924213;29;19922;-80
2022/02/18 03:55:12;;;;;;;;;;;3.50;99.90;;;;;;4959889;28;19920;-82
2022/02/18 03:57:44;;;;;;;;;;;3.50;99.90;;;;;;4908578;28;19920;-81
2022/02/18 04:00:12;;;;;;;;;;;3.60;99.90;;;;;;4982080;28;20329;-80
2022/02/18 04:02:44;;;;;;;;;;;3.60;99.90;;;;;;4984824;28;19987;-81
2022/02/18 04:05:19;;;;;;;;;;;3.60;99.90;;;;;;4911765;29;19973;-80
2022/02/18 04:07:55;;;;;;;;;;;3.60;99.90;;;;;;4910665;28;19930;-82
2022/02/18 04:10:20;;;;;;;;;;;3.50;99.90;;;;;;4978359;28;19919;-81
2022/02/18 04:12:47;;;;;;;;;;;3.60;99.90;;;;;;4927729;29;19923;-81
2022/02/18 04:15:19;;;;;;;;;;;3.60;99.90;;;;;;4927540;28;19986;-81
2022/02/18 04:17:46;;;;;;;;;;;3.60;99.90;;;;;;4909896;28;20397;-82
2022/02/18 04:20:30;;;;;;;;;;;3.60;99.90;;;;;;4893071;29;19982;-81
2022/02/18 04:22:58;;;;;;;;;;;3.60;99.90;;;;;;4916676;28;20297;-82
2022/02/18 04:25:28;;;;;;;;;;;3.60;99.90;;;;;;4923270;28;19916;-82
2022/02/18 04:27:54;;;;;;;;;;;3.50;99.90;;;;;;4946280;28;19926;-81
2022/02/18 04:30:20;;;;;;;;;;;3.50;99.90;;;;;;4907855;28;19922;-80
2022/02/18 04:32:46;;;;;;;;;;;3.50;99.90;;;;;;4897199;29;20405;-82
2022/02/18 04:35:12;;;;;;;;;;;3.50;99.90;;;;;;4877053;29;19922;-81
2022/02/18 04:37:39;;;;;;;;;;;3.50;99.90;;;;;;4911344;28;20347;-81
2022/02/18 04:40:07;;;;;;;;;;;3.50;99.90;;;;;;4929558;28;20018;-81
2022/02/18 04:42:32;;;;;;;;;;;3.50;99.90;;;;;;4985591;28;19924;-82
2022/02/18 04:44:58;;;;;;;;;;;3.50;99.90;;;;;;4974874;28;19920;-81
2022/02/18 04:47:25;;;;;;;;;;;3.50;99.90;;;;;;4956274;28;19978;-80
2022/02/18 04:49:51;;;;;;;;;;;3.50;99.90;;;;;;4911757;28;19922;-81
2022/02/18 04:52:17;;;;;;;;;;;3.50;99.90;;;;;;4928430;28;19926;-81
2022/02/18 04:54:43;;;;;;;;;;;3.50;99.90;;;;;;4909376;29;19920;-81
2022/02/18 04:57:09;;;;;;;;;;;3.50;99.90;;;;;;4911161;28;19919;-82
2022/02/18 04:59:34;;;;;;;;;;;3.50;99.90;;;;;;4905078;28;20297;-80
2022/02/18 05:02:00;;;;;;;;;;;3.50;99.90;;;;;;4927203;28;20361;-80
2022/02/18 05:04:26;;;;;;;;;;;3.50;99.90;;;;;;4925239;29;19915;-81
2022/02/18 05:06:51;;;;;;;;;;;3.40;99.90;;;;;;4929798;28;19923;-80
2022/02/18 05:09:17;;;;;;;;;;;3.40;99.90;;;;;;4928527;28;19934;-81
2022/02/18 05:11:42;;;;;;;;;;;3.40;99.90;;;;;;4910409;29;19927;-81
2022/02/18 05:14:08;;;;;;;;;;;3.50;99.90;;;;;;4895809;29;19920;-81
2022/02/18 05:16:34;;;;;;;;;;;3.40;99.90;;;;;;4899664;28;20392;-82
2022/02/18 05:19:02;;;;;;;;;;;3.40;99.90;;;;;;4898839;28;19919;-81
2022/02/18 05:21:28;;;;;;;;;;;3.40;99.90;;;;;;4979762;28;20373;-81
2022/02/18 05:23:53;;;;;;;;;;;3.40;99.90;;;;;;4914091;29;19930;-81
2022/02/18 05:26:19;;;;;;;;;;;3.40;99.90;;;;;;4986760;28;20409;-81
2022/02/18 05:28:45;;;;;;;;;;;3.40;99.90;;;;;;4962911;28;19942;-81
2022/02/18 05:31:10;;;;;;;;;;;3.50;99.90;;;;;;4910673;29;20332;-80
2022/02/18 05:33:36;;;;;;;;;;;3.50;99.90;;;;;;4984043;28;19923;-81
2022/02/18 05:36:02;;;;;;;;;;;3.60;99.90;;;;;;4996881;28;19925;-81
2022/02/18 05:38:29;;;;;;;;;;;3.60;99.90;;;;;;4983499;28;20010;-81
2022/02/18 05:40:58;;;;;;;;;;;3.50;99.90;;;;;;4913828;29;19919;-81
2022/02/18 05:43:24;;;;;;;;;;;3.50;99.90;;;;;;4981996;28;20022;-82
2022/02/18 05:45:50;;;;;;;;;;;3.50;99.90;;;;;;4896007;29;20278;-81
2022/02/18 05:48:15;;;;;;;;;;;3.40;99.90;;;;;;4925893;29;20017;-80
2022/02/18 05:50:44;;;;;;;;;;;3.40;99.90;;;;;;4926357;28;20292;-82
2022/02/18 05:53:09;;;;;;;;;;;3.50;99.90;;;;;;4923432;29;19916;-82
2022/02/18 05:55:35;;;;;;;;;;;3.50;99.90;;;;;;4908276;29;20025;-81
2022/02/18 05:58:00;;;;;;;;;;;3.50;99.90;;;;;;4913185;29;19923;-82
2022/02/18 06:00:26;;;;;;;;;;;3.50;99.90;;;;;;4914296;28;19919;-82
2022/02/18 06:02:52;;;;;;;;;;;3.50;99.90;;;;;;4925447;29;19962;-82
2022/02/18 06:05:17;;;;;;;;;;;3.50;99.90;;;;;;4960761;28;19926;-83
2022/02/18 06:07:46;;;;;;;;;;;3.50;99.90;;;;;;4982338;28;20018;-82
2022/02/18 06:10:11;;;;;;;;;;;3.50;99.90;;;;;;4926835;29;20393;-81
2022/02/18 06:12:37;;;;;;;;;;;3.50;99.90;;;;;;4968961;28;19982;-82
2022/02/18 06:15:03;;;;;;;;;;;3.50;99.90;;;;;;4895738;29;19919;-82
2022/02/18 06:17:28;;;;;;;;;;;3.50;99.90;;;;;;4926961;28;20289;-81
2022/02/18 06:19:56;;;;;;;;;;;3.50;99.90;;;;;;4978762;28;19920;-82
2022/02/18 06:22:22;;;;;;;;;;;3.50;99.90;;;;;;4912649;29;19947;-82
2022/02/18 06:24:48;;;;;;;;;;;3.50;99.90;;;;;;4974745;28;19955;-82
2022/02/18 06:27:13;;;;;;;;;;;3.60;99.90;;;;;;4984863;28;19920;-82
2022/02/18 06:29:39;;;;;;;;;;;3.60;99.90;;;;;;4909158;28;19919;-81
2022/02/18 06:32:07;;;;;;;;;;;3.60;99.90;;;;;;4928937;29;19926;-81
2022/02/18 06:34:33;;;;;;;;;;;3.70;99.90;;;;;;4925544;29;19926;-80
2022/02/18 06:36:58;;;;;;;;;;;3.70;99.90;;;;;;4896808;29;20369;-82
2022/02/18 06:39:24;;;;;;;;;;;3.80;99.90;;;;;;4960438;28;19962;-82
2022/02/18 06:41:49;;;;;;;;;;;3.80;99.90;;;;;;4893692;28;19920;-82
2022/02/18 06:44:15;;;;;;;;;;;3.80;99.90;;;;;;4912215;29;20367;-81
2022/02/18 06:46:41;;;;;;;;;;;3.90;99.90;;;;;;4911456;28;19921;-81
2022/02/18 06:49:07;;;;;;;;;;;3.90;99.90;;;;;;4930581;28;19919;-80
2022/02/18 06:51:33;;;;;;;;;;;4.00;99.90;;;;;;4912138;29;20396;-81
2022/02/18 06:53:59;;;;;;;;;;;3.90;99.90;;;;;;4910554;29;19937;-82
2022/02/18 06:56:24;;;;;;;;;;;3.90;99.90;;;;;;4928074;28;19916;-82
2022/02/18 06:58:52;;;;;;;;;;;3.90;99.90;;;;;;4893896;28;19919;-84
2022/02/18 07:01:18;;;;;;;;;;;3.90;99.90;;;;;;4992564;28;19923;-81
2022/02/18 07:03:43;;;;;;;;;;;4.00;99.90;;;;;;4925081;28;19919;-82
2022/02/18 07:06:09;;;;;;;;;;;4.00;99.90;;;;;;4924433;29;20400;-82
2022/02/18 07:08:35;;;;;;;;;;;4.10;99.90;;;;;;4895653;29;20310;-82
2022/02/18 07:11:00;;;;;;;;;;;4.20;99.90;;;;;;4909835;29;19926;-83
2022/02/18 07:13:26;;;;;;;;;;;4.30;99.90;;;;;;4976755;28;19926;-80
2022/02/18 07:15:52;;;;;;;;;;;4.50;99.90;;;;;;4986491;28;19926;-81
2022/02/18 07:18:17;;;;;;;;;;;4.50;99.90;;;;;;4909529;28;19950;-81
2022/02/18 07:20:43;;;;;;;;;;;4.50;99.90;;;;;;4933330;29;19966;-81
2022/02/18 07:23:09;;;;;;;;;;;4.60;99.90;;;;;;4976128;28;19919;-80
2022/02/18 07:25:35;;;;;;;;;;;4.60;99.90;;;;;;4928033;28;19915;-80
2022/02/18 07:28:01;;;;;;;;;;;4.50;99.90;;;;;;4924952;28;19981;-81
2022/02/18 07:30:27;;;;;;;;;;;4.60;99.90;;;;;;4909592;29;19919;-81
2022/02/18 07:32:53;;;;;;;;;;;4.70;99.90;;;;;;4910348;29;19942;-80
2022/02/18 07:35:20;;;;;;;;;;;4.80;99.90;;;;;;4992977;28;19970;-80
2022/02/18 07:37:49;;;;;;;;;;;4.70;99.90;;;;;;4921963;28;19916;-81
2022/02/18 07:40:16;;;;;;;;;;;4.70;99.90;;;;;;4911219;29;19923;-80
2022/02/18 07:42:43;;;;;;;;;;;4.80;99.90;;;;;;4910839;29;20258;-81
2022/02/18 07:45:12;;;;;;;;;;;4.90;99.90;;;;;;4887571;28;19938;-81
2022/02/18 07:47:38;;;;;;;;;;;5.00;99.90;;;;;;4918699;29;20274;-80
2022/02/18 07:50:05;;;;;;;;;;;5.00;99.90;;;;;;4912775;28;20006;-81
2022/02/18 07:52:30;;;;;;;;;;;5.00;99.90;;;;;;4908256;29;19935;-82
2022/02/18 07:54:56;;;;;;;;;;;5.10;99.90;;;;;;4882703;29;19916;-80
2022/02/18 07:57:23;;;;;;;;;;;5.20;99.90;;;;;;4921905;28;19962;-81
2022/02/18 07:59:48;;;;;;;;;;;5.20;99.90;;;;;;4988828;28;19967;-80
2022/02/18 08:02:14;;;;;;;;;;;5.20;99.90;;;;;;4981787;28;20367;-81
2022/02/18 08:04:41;;;;;;;;;;;5.20;99.90;;;;;;4923291;29;19985;-81
2022/02/18 08:07:06;;;;;;;;;;;5.20;99.90;;;;;;4924014;28;20366;-81
2022/02/18 08:09:33;;;;;;;;;;;5.20;99.90;;;;;;4912154;29;19923;-83
2022/02/18 08:11:59;;;;;;;;;;;5.30;99.90;;;;;;4910236;28;19946;-83
2022/02/18 08:14:24;;;;;;;;;;;5.30;99.90;;;;;;4912442;29;19927;-80
2022/02/18 08:16:50;;;;;;;;;;;5.40;99.90;;;;;;4976464;28;20385;-80
2022/02/18 08:19:20;;;;;;;;;;;5.40;99.90;;;;;;4906697;29;19919;-79
2022/02/18 08:21:46;;;;;;;;;;;5.40;99.90;;;;;;4973699;28;20382;-80
2022/02/18 08:24:17;;;;;;;;;;;5.40;99.90;;;;;;4980927;28;19919;-81
2022/02/18 08:26:43;;;;;;;;;;;5.40;99.90;;;;;;4972164;28;19958;-82
2022/02/18 08:29:09;;;;;;;;;;;5.50;99.90;;;;;;4929881;28;19915;-82
2022/02/18 08:31:34;;;;;;;;;;;5.50;99.90;;;;;;4922356;29;19931;-81
2022/02/18 08:34:00;;;;;;;;;;;5.50;99.90;;;;;;4929198;29;19926;-83
2022/02/18 08:36:26;;;;;;;;;;;5.50;99.90;;;;;;4922041;29;19966;-81
2022/02/18 08:38:52;;;;;;;;;;;5.60;99.90;;;;;;4915448;28;19931;-81
2022/02/18 08:41:18;;;;;;;;;;;5.60;99.90;;;;;;4975941;28;20028;-82
2022/02/18 08:43:44;;;;;;;;;;;5.70;99.90;;;;;;4928678;29;19955;-82
2022/02/18 08:46:11;;;;;;;;;;;5.70;99.90;;;;;;4928530;29;19958;-79
2022/02/18 08:48:36;;;;;;;;;;;5.70;99.90;;;;;;4906863;28;19962;-82
2022/02/18 08:51:02;;;;;;;;;;;5.70;99.90;;;;;;4927473;28;20053;-82
2022/02/18 08:53:27;;;;;;;;;;;5.80;99.90;;;;;;4920065;28;19919;-80
2022/02/18 08:55:53;;;;;;;;;;;5.90;99.90;;;;;;4903683;28;19919;-80
2022/02/18 08:58:19;;;;;;;;;;;5.90;99.90;;;;;;4951032;28;19927;-81
2022/02/18 09:00:44;;;;;;;;;;;6.00;99.90;;;;;;4905796;28;20030;-84
2022/02/18 09:03:10;;;;;;;;;;;6.00;99.90;;;;;;4986307;28;20392;-81
2022/02/18 09:05:36;;;;;;;;;;;6.10;99.90;;;;;;4970140;28;19919;-81
2022/02/18 09:08:03;;;;;;;;;;;6.10;99.90;;;;;;4947497;28;19934;-83
2022/02/18 09:10:29;;;;;;;;;;;6.20;99.90;;;;;;4905795;29;19915;-81
2022/02/18 09:12:54;;;;;;;;;;;6.20;99.90;;;;;;4967588;28;19919;-81
2022/02/18 09:15:20;;;;;;;;;;;6.20;99.90;;;;;;4956076;28;19919;-81
2022/02/18 09:18:12;;;;;;;;;;;6.30;99.90;;;;;;4908854;29;19919;-80
2022/02/18 09:20:40;;;;;;;;;;;6.30;99.90;;;;;;4886288;28;19923;-81
2022/02/18 09:23:05;;;;;;;;;;;6.40;99.90;;;;;;4919012;29;20102;-81
2022/02/18 09:25:31;;;;;;;;;;;6.40;99.90;;;;;;4905836;29;19937;-79
2022/02/18 09:27:57;;;;;;;;;;;6.40;99.90;;;;;;4889433;29;19954;-79
2022/02/18 09:30:23;;;;;;;;;;;6.40;99.90;;;;;;4952437;28;19943;-82
2022/02/18 09:32:48;;;;;;;;;;;6.50;99.90;;;;;;4900575;28;19915;-81
2022/02/18 09:35:14;;;;;;;;;;;6.50;99.90;;;;;;4915001;28;19916;-83
2022/02/18 09:37:41;;;;;;;;;;;6.60;99.90;;;;;;4967469;28;20027;-81
2022/02/18 09:40:08;;;;;;;;;;;6.60;99.90;;;;;;4958903;28;19947;-81
2022/02/18 09:42:36;;;;;;;;;;;6.70;99.90;;;;;;5064913;22;20398;-88
2022/02/18 09:45:03;;;;;;;;;;;6.80;99.90;;;;;;5050451;28;19955;-87
2022/02/18 09:47:31;;;;;;;;;;;6.80;99.90;;;;;;5058187;28;19920;-89
2022/02/18 09:50:00;;;;;;;;;;;6.90;99.90;;;;;;5071136;28;20081;-88
2022/02/18 09:52:27;;;;;;;;;;;7.00;99.90;;;;;;5048298;28;19952;-87
2022/02/18 09:54:58;;;;;;;;;;;7.00;99.90;;;;;;5049692;28;19920;-86
2022/02/18 09:57:28;;;;;;;;;;;7.00;99.90;;;;;;5028144;28;19913;-85
2022/02/18 09:59:53;;;;;;;;;;;7.10;99.90;;;;;;4999683;28;19928;-88
2022/02/18 10:02:19;;;;;;;;;;;7.10;99.90;;;;;;5032447;28;19913;-85
2022/02/18 10:04:45;;;;;;;;;;;7.10;99.90;;;;;;5002448;28;19914;-86
2022/02/18 10:07:11;;;;;;;;;;;7.10;99.90;;;;;;5008223;28;20008;-87
2022/02/18 10:09:37;;;;;;;;;;;7.00;99.90;;;;;;5018074;28;19928;-86
2022/02/18 10:12:03;;;;;;;;;;;7.00;99.90;;;;;;5013128;28;19913;-86
2022/02/18 10:14:47;;;;;;;;;;;7.00;99.90;;;;;;5013413;28;19940;-84
2022/02/18 10:17:13;;;;;;;;;;;7.10;99.90;;;;;;5026228;28;19917;-85
2022/02/18 10:19:48;;;;;;;;;;;7.10;99.90;;;;;;5024256;28;19924;-88
2022/02/18 10:22:21;;;;;;;;;;;7.10;99.90;;;;;;5015588;28;19924;-89
2022/02/18 10:24:47;;;;;;;;;;;7.20;99.90;;;;;;5033228;28;19917;-89
2022/02/18 10:27:15;;;;;;;;;;;7.20;99.90;;;;;;5013394;28;19913;-86
2022/02/18 10:29:57;;;;;;;;;;;7.20;99.90;;;;;;5003148;28;20016;-85
2022/02/18 10:32:23;;;;;;;;;;;7.20;99.90;;;;;;5010791;28;19921;-85
2022/02/18 10:35:00;;;;;;;;;;;7.30;99.90;;;;;;5013795;28;20298;-86
2022/02/18 10:37:27;;;;;;;;;;;7.30;99.90;;;;;;5023039;28;19913;-85
2022/02/18 10:40:10;;;;;;;;;;;7.30;99.90;;;;;;5013052;28;20007;-87
2022/02/18 10:42:36;;;;;;;;;;;7.30;99.90;;;;;;5024176;28;19924;-86
2022/02/18 10:45:15;;;;;;;;;;;7.30;99.90;;;;;;5014290;28;19909;-87
2022/02/18 10:47:41;;;;;;;;;;;7.20;99.90;;;;;;5020702;28;20375;-89
2022/02/18 10:50:13;;;;;;;;;;;7.10;99.90;;;;;;5004704;28;20280;-87
2022/02/18 10:52:39;;;;;;;;;;;7.10;99.90;;;;;;5047211;28;19960;-88
2022/02/18 10:55:08;;;;;;;;;;;7.00;99.90;;;;;;5013636;28;19963;-86
2022/02/18 10:57:34;;;;;;;;;;;7.00;99.90;;;;;;5014881;28;20387;-86
2022/02/18 11:00:10;;;;;;;;;;;7.00;99.90;;;;;;5024833;28;19917;-87
2022/02/18 11:02:38;;;;;;;;;;;7.00;99.90;;;;;;5034692;28;19960;-87
2022/02/18 11:05:20;;;;;;;;;;;6.90;99.90;;;;;;5003629;28;20008;-89
2022/02/18 11:07:45;;;;;;;;;;;6.90;99.90;;;;;;4998903;28;20538;-88
2022/02/18 11:10:30;;;;;;;;;;;6.90;99.90;;;;;;5000710;28;19961;-86
2022/02/18 11:12:56;;;;;;;;;;;6.80;99.90;;;;;;5008085;28;19959;-86
2022/02/18 11:15:22;;;;;;;;;;;6.80;99.90;;;;;;5036083;28;19918;-86
2022/02/18 11:17:48;;;;;;;;;;;6.80;99.90;;;;;;5027967;28;19921;-87
2022/02/18 11:20:15;;;;;;;;;;;6.80;99.90;;;;;;5014444;28;19968;-87
2022/02/18 11:22:42;;;;;;;;;;;6.80;99.90;;;;;;5032898;28;19913;-87
2022/02/18 11:25:08;;;;;;;;;;;6.80;99.90;;;;;;5008382;28;20283;-87
2022/02/18 11:27:35;;;;;;;;;;;6.90;99.90;;;;;;5018477;23;19925;-81
2022/02/18 11:30:00;;;;;;;;;;;6.90;99.90;;;;;;5032459;28;20379;-81
2022/02/18 11:32:30;;;;;;;;;;;6.90;99.90;;;;;;5012637;28;19924;-80
2022/02/18 11:35:02;;;;;;;;;;;6.90;99.90;;;;;;5012443;28;19980;-82
2022/02/18 11:37:51;;;;;;;;;;;6.90;99.90;;;;;;5029827;28;19913;-82
2022/02/18 11:40:35;;;;;;;;;;;7.00;99.90;;;;;;5005922;28;19921;-81
2022/02/18 11:43:19;;;;;;;;;;;7.10;99.90;;;;;;5012468;28;19922;-80
2022/02/18 11:45:45;;;;;;;;;;;7.10;99.90;;;;;;4998970;28;19913;-81
2022/02/18 11:48:29;;;;;;;;;;;7.20;99.90;;;;;;5014266;28;20473;-81
2022/02/18 11:51:04;;;;;;;;;;;7.20;99.90;;;;;;5006254;28;19960;-81
2022/02/18 11:53:37;;;;;;;;;;;7.30;99.90;;;;;;5018285;28;19967;-81
2022/02/18 11:56:03;;;;;;;;;;;7.30;99.90;;;;;;5013830;28;19936;-81
2022/02/18 11:58:46;;;;;;;;;;;7.40;99.90;;;;;;5029580;28;20400;-81
2022/02/18 12:01:12;;;;;;;;;;;7.50;99.90;;;;;;5000436;28;19920;-81
2022/02/18 12:03:37;;;;;;;;;;;7.60;99.90;;;;;;5015285;28;19920;-82
2022/02/18 12:06:09;;;;;;;;;;;7.70;99.90;;;;;;5032899;28;19917;-82
2022/02/18 12:08:35;;;;;;;;;;;7.80;99.90;;;;;;5012200;28;20053;-82
2022/02/18 12:11:15;;;;;;;;;;;8.00;99.90;;;;;;5018494;28;20283;-84
2022/02/18 12:14:04;;;;;;;;;;;8.10;99.90;;;;;;5013201;28;19985;-82
2022/02/18 12:16:29;;;;;;;;;;;8.20;99.90;;;;;;5008110;28;20287;-83
2022/02/18 12:19:14;;;;;;;;;;;8.40;99.90;;;;;;5021823;28;19917;-80
2022/02/18 12:21:57;;;;;;;;;;;8.60;99.90;;;;;;5021021;28;20673;-81
2022/02/18 12:24:42;;;;;;;;;;;8.70;99.90;;;;;;5016211;28;20364;-81
2022/02/18 12:27:23;;;;;;;;;;;8.80;99.90;;;;;;5002218;28;19965;-81
2022/02/18 12:29:50;;;;;;;;;;;8.90;99.90;;;;;;5031761;28;19913;-81
2022/02/18 12:32:17;;;;;;;;;;;9.10;99.90;;;;;;5006592;28;20371;-81
2022/02/18 12:34:46;;;;;;;;;;;9.30;99.90;;;;;;5026992;28;19918;-81
2022/02/18 12:37:12;;;;;;;;;;;9.40;99.90;;;;;;5011135;28;20323;-81
2022/02/18 12:39:39;;;;;;;;;;;9.40;99.90;;;;;;5026591;28;19917;-81
2022/02/18 12:42:11;;;;;;;;;;;9.50;99.90;;;;;;5043671;28;19917;-81
2022/02/18 12:44:44;;;;;;;;;;;9.50;99.90;;;;;;5021789;28;20411;-80
2022/02/18 12:47:09;;;;;;;;;;;9.40;99.90;;;;;;5008711;28;19952;-79
2022/02/18 12:49:41;;;;;;;;;;;9.40;99.90;;;;;;5024043;28;19944;-81
2022/02/18 12:52:08;;;;;;;;;;;9.40;99.90;;;;;;5006717;28;19918;-79
2022/02/18 12:54:50;;;;;;;;;;;9.30;99.90;;;;;;5024359;28;20008;-81
2022/02/18 12:57:20;;;;;;;;;;;9.30;99.90;;;;;;5025887;28;19928;-79
2022/02/18 12:59:47;;;;;;;;;;;9.40;99.90;;;;;;5030277;28;19917;-79
2022/02/18 13:02:32;;;;;;;;;;;9.40;99.90;;;;;;5009652;28;19948;-81
2022/02/18 13:05:05;;;;;;;;;;;9.50;99.90;;;;;;5010923;28;20299;-79
2022/02/18 13:07:35;;;;;;;;;;;9.60;99.90;;;;;;5029708;28;19913;-80
2022/02/18 13:10:01;;;;;;;;;;;9.80;99.90;;;;;;5017318;28;19920;-78
2022/02/18 13:12:27;;;;;;;;;;;9.90;99.90;;;;;;5024383;28;19987;-79
2022/02/18 13:15:05;;;;;;;;;;;10.00;99.90;;;;;;5018110;28;20375;-79
2022/02/18 13:17:31;;;;;;;;;;;10.10;99.90;;;;;;5033188;28;19917;-79
2022/02/18 13:19:56;;;;;;;;;;;10.20;99.90;;;;;;5032220;28;19944;-79
2022/02/18 13:22:31;;;;;;;;;;;10.20;99.90;;;;;;5015636;28;19926;-79
2022/02/18 13:24:56;;;;;;;;;;;10.30;99.90;;;;;;4998497;28;20339;-81
2022/02/18 13:27:22;;;;;;;;;;;10.40;99.90;;;;;;5016757;28;19975;-81
2022/02/18 13:29:53;;;;;;;;;;;10.40;99.90;;;;;;5016780;28;19918;-79
2022/02/18 13:32:19;;;;;;;;;;;10.50;99.90;;;;;;5032310;28;19967;-79
2022/02/18 13:34:51;;;;;;;;;;;10.50;99.90;;;;;;5023939;28;19914;-80
2022/02/18 13:37:19;;;;;;;;;;;10.50;99.90;;;;;;5033742;28;19917;-79
2022/02/18 13:39:46;;;;;;;;;;;10.60;99.90;;;;;;5016893;28;19925;-80
2022/02/18 13:42:11;;;;;;;;;;;10.50;99.90;;;;;;5028125;28;20279;-81
2022/02/18 13:44:37;;;;;;;;;;;10.50;99.90;;;;;;5028807;28;20016;-80
2022/02/18 13:47:06;;;;;;;;;;;10.50;99.90;;;;;;5008921;28;19925;-80
2022/02/18 13:49:32;;;;;;;;;;;10.60;99.90;;;;;;5022334;28;19913;-80
2022/02/18 13:51:57;;;;;;;;;;;10.60;99.90;;;;;;5008352;28;20363;-80
2022/02/18 13:54:27;;;;;;;;;;;10.60;99.90;;;;;;4993679;28;19932;-81
2022/02/18 13:57:03;;;;;;;;;;;10.70;99.90;;;;;;5031157;28;19917;-80
2022/02/18 13:59:29;;;;;;;;;;;10.70;99.90;;;;;;5022351;28;19966;-81
2022/02/18 14:01:56;;;;;;;;;;;10.60;99.90;;;;;;5026353;28;19913;-80
2022/02/18 14:04:23;;;;;;;;;;;10.50;99.90;;;;;;5026564;28;19979;-80
2022/02/18 14:06:55;;;;;;;;;;;10.50;99.90;;;;;;4988869;28;20384;-80
2022/02/18 14:09:20;;;;;;;;;;;10.50;99.90;;;;;;5025649;28;20355;-79
2022/02/18 14:11:50;;;;;;;;;;;10.40;99.90;;;;;;5028547;28;20000;-80
2022/02/18 14:14:17;;;;;;;;;;;10.40;99.90;;;;;;5008113;28;19999;-80
2022/02/18 14:16:57;;;;;;;;;;;10.40;99.90;;;;;;5009083;28;20379;-80
2022/02/18 14:19:41;;;;;;;;;;;10.30;99.90;;;;;;5018592;28;20379;-81
2022/02/18 14:22:07;;;;;;;;;;;10.30;99.90;;;;;;4995643;28;19957;-81
2022/02/18 14:24:35;;;;;;;;;;;10.30;99.90;;;;;;5016157;28;19953;-80
2022/02/18 14:27:01;;;;;;;;;;;10.30;99.90;;;;;;4987060;28;19991;-81
2022/02/18 14:29:27;;;;;;;;;;;10.30;99.90;;;;;;5018950;28;20291;-80
2022/02/18 14:31:57;;;;;;;;;;;10.30;99.90;;;;;;4986597;28;19922;-82
2022/02/18 14:34:23;;;;;;;;;;;10.30;99.90;;;;;;5009362;28;20155;-81
2022/02/18 14:36:57;;;;;;;;;;;10.30;99.90;;;;;;5011154;28;19917;-82